Paganini — V2CL8 — position and weather

sailwx.info

Track history (hours):
 
Tides and Currents Weather Stations Pressure Air Temp Water Temp Dewpoint Dewpoint Depression Visibility Wind Speed Wind Dir Waves Ship Positions

Paganini

Last reported at 2017-Jan-24 22:33 UTC. Time now 2017-Jan-24 23:31 UTC.
Position N 38°20' W 009°43'.

Length 90 m; draft 5.8 m.

Type: Cargo ship. MMSI: 305040000.

Date/timePositionNaut miles runAvg speedWind from/ knotsBaromVisibWave heightAir tempDewpointWater temp
2017-Jan-24 22:33N 38°20' W 009°43'11 9.2
2017-Jan-24 21:18N 38°09' W 009°40'7 8.9
2017-Jan-24 20:33N 38°03' W 009°38'9 8.9
2017-Jan-24 19:33N 37°54' W 009°36'225 7.7
2017-Jan-23 14:31N 35°58' W 005°34'6 6.4
2017-Jan-23 13:33N 35°60' W 005°27'7 6.8
2017-Jan-23 12:33N 35°56' W 005°20'3 2.8
2017-Jan-23 11:31N 35°54' W 005°18'0 0.0
2017-Jan-23 10:31N 35°54' W 005°18'0 0.0
2017-Jan-23 09:31N 35°54' W 005°18'1 1.0
2017-Jan-23 08:33N 35°55' W 005°19'  
2017-Jan-19 20:25N 38°44' E 008°39'8 9.2
2017-Jan-19 19:32N 38°47' E 008°49'9 9.0
2017-Jan-19 18:33N 38°53' E 008°58'9 8.9
2017-Jan-19 17:32N 39°00' E 009°04'8 8.2
2017-Jan-19 16:33N 39°08' E 009°06'5 5.3
2017-Jan-19 15:33N 39°13' E 009°04'0 0.0
2017-Jan-19 14:33N 39°13' E 009°04'0 0.0
2017-Jan-19 13:33N 39°13' E 009°04'0 0.0
2017-Jan-19 12:33N 39°13' E 009°04'0 0.0
2017-Jan-19 11:33N 39°13' E 009°04'0 0.0
2017-Jan-19 10:30N 39°13' E 009°04'0 0.0
2017-Jan-19 09:33N 39°13' E 009°04'0 0.0
2017-Jan-19 08:33N 39°13' E 009°04'0 0.0
2017-Jan-19 07:33N 39°13' E 009°04'0 0.0
2017-Jan-19 06:33N 39°13' E 009°04'0 0.0
2017-Jan-19 05:33N 39°13' E 009°04'0 0.0
2017-Jan-19 04:33N 39°13' E 009°04'0 0.0
2017-Jan-19 03:30N 39°13' E 009°04'0 0.0
2017-Jan-19 02:33N 39°13' E 009°04'0 0.0
2017-Jan-19 01:33N 39°13' E 009°04'0 0.0
2017-Jan-19 00:33N 39°13' E 009°04'0 0.0
2017-Jan-18 23:33N 39°13' E 009°04'0 0.0
2017-Jan-18 22:30N 39°13' E 009°04'0 0.0
2017-Jan-18 21:33N 39°13' E 009°04'0 0.0
2017-Jan-18 20:33N 39°13' E 009°04'0 0.0
2017-Jan-18 19:33N 39°13' E 009°04'0 0.0
2017-Jan-18 18:33N 39°13' E 009°04'0 0.0
2017-Jan-18 17:33N 39°13' E 009°04'0 0.0
2017-Jan-18 16:33N 39°13' E 009°04'0 0.0
2017-Jan-18 15:33N 39°13' E 009°04'0 0.0
2017-Jan-18 14:33N 39°13' E 009°04'0 0.0
2017-Jan-18 13:24N 39°13' E 009°04'0 0.0
2017-Jan-18 12:33N 39°13' E 009°04'0 0.0
2017-Jan-18 11:30N 39°13' E 009°04'0 0.0
2017-Jan-18 10:33N 39°13' E 009°04'0 0.0
2017-Jan-18 09:33N 39°13' E 009°04'0 0.0
2017-Jan-18 08:33N 39°13' E 009°04'0 0.0
2017-Jan-18 07:33N 39°13' E 009°04'0 0.0
2017-Jan-18 06:33N 39°13' E 009°04'0 0.0
2017-Jan-18 05:33N 39°13' E 009°04'0 0.0
2017-Jan-18 04:30N 39°13' E 009°04'0 0.0
2017-Jan-18 03:33N 39°13' E 009°04'0 0.0
2017-Jan-18 02:33N 39°13' E 009°04'0 0.0
2017-Jan-18 01:33N 39°13' E 009°04'0 0.0
2017-Jan-18 00:33N 39°13' E 009°04'0 0.0
2017-Jan-17 23:33N 39°13' E 009°04'0 0.0
2017-Jan-17 22:33N 39°13' E 009°04'0 0.0
2017-Jan-17 21:33N 39°13' E 009°04'0 0.0
2017-Jan-17 20:33N 39°13' E 009°04'0 0.0
2017-Jan-17 19:33N 39°13' E 009°04'0 0.0
2017-Jan-17 18:33N 39°13' E 009°04'0 0.0
2017-Jan-17 17:33N 39°13' E 009°04'0 0.0
2017-Jan-17 16:33N 39°13' E 009°04'0 0.0
2017-Jan-17 15:33N 39°13' E 009°04'0 0.0
2017-Jan-17 14:33N 39°13' E 009°04'0 0.0
2017-Jan-17 13:33N 39°13' E 009°04'0 0.0
2017-Jan-17 12:33N 39°13' E 009°04'0 0.0
2017-Jan-17 11:33N 39°13' E 009°04'0 0.0
2017-Jan-17 10:33N 39°13' E 009°04'0 0.0
2017-Jan-17 09:33N 39°13' E 009°04'0 0.0
2017-Jan-17 08:33N 39°13' E 009°04'0 0.0
2017-Jan-17 07:33N 39°13' E 009°04'0 0.0
2017-Jan-17 06:33N 39°13' E 009°04'0 0.0
2017-Jan-17 05:33N 39°13' E 009°04'0 0.0
2017-Jan-17 04:33N 39°13' E 009°04'0 0.0
2017-Jan-17 03:33N 39°13' E 009°04'0 0.0
2017-Jan-17 02:33N 39°13' E 009°04'0 0.0
2017-Jan-17 01:33N 39°13' E 009°04'0 0.0
2017-Jan-17 00:33N 39°13' E 009°04'0 0.0
2017-Jan-16 23:33N 39°13' E 009°04'0 0.0
2017-Jan-16 22:30N 39°13' E 009°04'0 0.0
2017-Jan-16 21:33N 39°13' E 009°04'0 0.0
2017-Jan-16 20:33N 39°13' E 009°04'0 0.0
2017-Jan-16 19:33N 39°13' E 009°04'0 0.0
2017-Jan-16 18:33N 39°13' E 009°04'0 0.0
2017-Jan-16 17:33N 39°13' E 009°04'0 0.0
2017-Jan-16 16:33N 39°13' E 009°04'0 0.0
2017-Jan-16 15:33N 39°13' E 009°04'0 0.0
2017-Jan-16 14:30N 39°13' E 009°04'3 3.1
2017-Jan-16 13:33N 39°11' E 009°06'9 8.8
2017-Jan-16 12:33N 39°02' E 009°08'9 9.1
2017-Jan-16 11:33N 38°55' E 009°01'9 9.4
2017-Jan-16 10:33N 38°49' E 008°52'  
Track history (hours):
 
Tides and Currents Weather Stations Pressure Air Temp Water Temp Dewpoint Dewpoint Depression Visibility Wind Speed Wind Dir Waves Ship Positions

Paganini

Last reported at 2017-Jan-24 22:33 UTC. Time now 2017-Jan-24 23:31 UTC.
Position N 38°20' W 009°43'.

Length 90 m; draft 5.8 m.

Type: Cargo ship. MMSI: 305040000.

Date/timePositionNaut miles runAvg speedWind from/ knotsBaromVisibWave heightAir tempDewpointWater temp
2017-Jan-24 22:33N 38°20' W 009°43'11 9.2
2017-Jan-24 21:18N 38°09' W 009°40'7 8.9
2017-Jan-24 20:33N 38°03' W 009°38'9 8.9
2017-Jan-24 19:33N 37°54' W 009°36'225 7.7
2017-Jan-23 14:31N 35°58' W 005°34'6 6.4
2017-Jan-23 13:33N 35°60' W 005°27'7 6.8
2017-Jan-23 12:33N 35°56' W 005°20'3 2.8
2017-Jan-23 11:31N 35°54' W 005°18'0 0.0
2017-Jan-23 10:31N 35°54' W 005°18'0 0.0
2017-Jan-23 09:31N 35°54' W 005°18'1 1.0
2017-Jan-23 08:33N 35°55' W 005°19'  
2017-Jan-19 20:25N 38°44' E 008°39'8 9.2
2017-Jan-19 19:32N 38°47' E 008°49'9 9.0
2017-Jan-19 18:33N 38°53' E 008°58'9 8.9
2017-Jan-19 17:32N 39°00' E 009°04'8 8.2
2017-Jan-19 16:33N 39°08' E 009°06'5 5.3
2017-Jan-19 15:33N 39°13' E 009°04'0 0.0
2017-Jan-19 14:33N 39°13' E 009°04'0 0.0
2017-Jan-19 13:33N 39°13' E 009°04'0 0.0
2017-Jan-19 12:33N 39°13' E 009°04'0 0.0
2017-Jan-19 11:33N 39°13' E 009°04'0 0.0
2017-Jan-19 10:30N 39°13' E 009°04'0 0.0
2017-Jan-19 09:33N 39°13' E 009°04'0 0.0
2017-Jan-19 08:33N 39°13' E 009°04'0 0.0
2017-Jan-19 07:33N 39°13' E 009°04'0 0.0
2017-Jan-19 06:33N 39°13' E 009°04'0 0.0
2017-Jan-19 05:33N 39°13' E 009°04'0 0.0
2017-Jan-19 04:33N 39°13' E 009°04'0 0.0
2017-Jan-19 03:30N 39°13' E 009°04'0 0.0
2017-Jan-19 02:33N 39°13' E 009°04'0 0.0
2017-Jan-19 01:33N 39°13' E 009°04'0 0.0
2017-Jan-19 00:33N 39°13' E 009°04'0 0.0
2017-Jan-18 23:33N 39°13' E 009°04'0 0.0
2017-Jan-18 22:30N 39°13' E 009°04'0 0.0
2017-Jan-18 21:33N 39°13' E 009°04'0 0.0
2017-Jan-18 20:33N 39°13' E 009°04'0 0.0
2017-Jan-18 19:33N 39°13' E 009°04'0 0.0
2017-Jan-18 18:33N 39°13' E 009°04'0 0.0
2017-Jan-18 17:33N 39°13' E 009°04'0 0.0
2017-Jan-18 16:33N 39°13' E 009°04'0 0.0
2017-Jan-18 15:33N 39°13' E 009°04'0 0.0
2017-Jan-18 14:33N 39°13' E 009°04'0 0.0
2017-Jan-18 13:24N 39°13' E 009°04'0 0.0
2017-Jan-18 12:33N 39°13' E 009°04'0 0.0
2017-Jan-18 11:30N 39°13' E 009°04'0 0.0
2017-Jan-18 10:33N 39°13' E 009°04'0 0.0
2017-Jan-18 09:33N 39°13' E 009°04'0 0.0
2017-Jan-18 08:33N 39°13' E 009°04'0 0.0
2017-Jan-18 07:33N 39°13' E 009°04'0 0.0
2017-Jan-18 06:33N 39°13' E 009°04'0 0.0
2017-Jan-18 05:33N 39°13' E 009°04'0 0.0
2017-Jan-18 04:30N 39°13' E 009°04'0 0.0
2017-Jan-18 03:33N 39°13' E 009°04'0 0.0
2017-Jan-18 02:33N 39°13' E 009°04'0 0.0
2017-Jan-18 01:33N 39°13' E 009°04'0 0.0
2017-Jan-18 00:33N 39°13' E 009°04'0 0.0
2017-Jan-17 23:33N 39°13' E 009°04'0 0.0
2017-Jan-17 22:33N 39°13' E 009°04'0 0.0
2017-Jan-17 21:33N 39°13' E 009°04'0 0.0
2017-Jan-17 20:33N 39°13' E 009°04'0 0.0
2017-Jan-17 19:33N 39°13' E 009°04'0 0.0
2017-Jan-17 18:33N 39°13' E 009°04'0 0.0
2017-Jan-17 17:33N 39°13' E 009°04'0 0.0
2017-Jan-17 16:33N 39°13' E 009°04'0 0.0
2017-Jan-17 15:33N 39°13' E 009°04'0 0.0
2017-Jan-17 14:33N 39°13' E 009°04'0 0.0
2017-Jan-17 13:33N 39°13' E 009°04'0 0.0
2017-Jan-17 12:33N 39°13' E 009°04'0 0.0
2017-Jan-17 11:33N 39°13' E 009°04'0 0.0
2017-Jan-17 10:33N 39°13' E 009°04'0 0.0
2017-Jan-17 09:33N 39°13' E 009°04'0 0.0
2017-Jan-17 08:33N 39°13' E 009°04'0 0.0
2017-Jan-17 07:33N 39°13' E 009°04'0 0.0
2017-Jan-17 06:33N 39°13' E 009°04'0 0.0
2017-Jan-17 05:33N 39°13' E 009°04'0 0.0
2017-Jan-17 04:33N 39°13' E 009°04'0 0.0
2017-Jan-17 03:33N 39°13' E 009°04'0 0.0
2017-Jan-17 02:33N 39°13' E 009°04'0 0.0
2017-Jan-17 01:33N 39°13' E 009°04'0 0.0
2017-Jan-17 00:33N 39°13' E 009°04'0 0.0
2017-Jan-16 23:33N 39°13' E 009°04'0 0.0
2017-Jan-16 22:30N 39°13' E 009°04'0 0.0
2017-Jan-16 21:33N 39°13' E 009°04'0 0.0
2017-Jan-16 20:33N 39°13' E 009°04'0 0.0
2017-Jan-16 19:33N 39°13' E 009°04'0 0.0
2017-Jan-16 18:33N 39°13' E 009°04'0 0.0
2017-Jan-16 17:33N 39°13' E 009°04'0 0.0
2017-Jan-16 16:33N 39°13' E 009°04'0 0.0
2017-Jan-16 15:33N 39°13' E 009°04'0 0.0
2017-Jan-16 14:30N 39°13' E 009°04'3 3.1
2017-Jan-16 13:33N 39°11' E 009°06'9 8.8
2017-Jan-16 12:33N 39°02' E 009°08'9 9.1
2017-Jan-16 11:33N 38°55' E 009°01'9 9.4
2017-Jan-16 10:33N 38°49' E 008°52'  

Dump ship's entire track history